sensor_id;sensor_type;location;lat;lon;timestamp;pressure;altitude;pressure_sealevel;temperature;humidity
58239;BME280;44037;55.638;37.356;2024-03-08T00:00:47;99114.56;;;-6.20;69.64
58239;BME280;44037;55.638;37.356;2024-03-08T00:03:17;99108.38;;;-6.19;69.54
58239;BME280;44037;55.638;37.356;2024-03-08T00:05:44;99111.75;;;-6.17;69.41
58239;BME280;44037;55.638;37.356;2024-03-08T00:08:12;99108.19;;;-6.00;69.41
58239;BME280;44037;55.638;37.356;2024-03-08T00:10:39;99112.09;;;-6.07;68.92
58239;BME280;44037;55.638;37.356;2024-03-08T00:13:06;99108.03;;;-5.97;69.27
58239;BME280;44037;55.638;37.356;2024-03-08T00:15:34;99108.41;;;-5.88;68.98
58239;BME280;44037;55.638;37.356;2024-03-08T00:18:03;99092.63;;;-5.87;68.88
58239;BME280;44037;55.638;37.356;2024-03-08T00:20:30;99098.06;;;-5.75;68.85
58239;BME280;44037;55.638;37.356;2024-03-08T00:22:59;99099.66;;;-5.73;68.26
58239;BME280;44037;55.638;37.356;2024-03-08T00:25:26;99084.41;;;-5.81;68.02
58239;BME280;44037;55.638;37.356;2024-03-08T00:27:54;99086.84;;;-5.77;68.37
58239;BME280;44037;55.638;37.356;2024-03-08T00:30:22;99081.91;;;-5.82;67.80
58239;BME280;44037;55.638;37.356;2024-03-08T00:32:51;99082.81;;;-5.83;68.27
58239;BME280;44037;55.638;37.356;2024-03-08T00:35:19;99075.34;;;-5.75;68.26
58239;BME280;44037;55.638;37.356;2024-03-08T00:37:48;99084.63;;;-5.69;67.91
58239;BME280;44037;55.638;37.356;2024-03-08T00:40:16;99078.38;;;-5.67;67.98
58239;BME280;44037;55.638;37.356;2024-03-08T00:42:44;99067.81;;;-5.51;68.08
58239;BME280;44037;55.638;37.356;2024-03-08T00:45:11;99071.59;;;-5.85;67.37
58239;BME280;44037;55.638;37.356;2024-03-08T00:47:39;99065.78;;;-5.90;67.85
58239;BME280;44037;55.638;37.356;2024-03-08T00:50:08;99061.22;;;-5.87;67.94
58239;BME280;44037;55.638;37.356;2024-03-08T00:52:37;99062.84;;;-5.70;67.80
58239;BME280;44037;55.638;37.356;2024-03-08T00:55:05;99052.13;;;-5.65;67.52
58239;BME280;44037;55.638;37.356;2024-03-08T00:57:33;99056.13;;;-5.59;67.60
58239;BME280;44037;55.638;37.356;2024-03-08T01:00:03;99054.97;;;-5.84;67.58
58239;BME280;44037;55.638;37.356;2024-03-08T01:02:31;99048.28;;;-5.74;67.92
58239;BME280;44037;55.638;37.356;2024-03-08T01:05:01;99041.75;;;-5.67;67.57
58239;BME280;44037;55.638;37.356;2024-03-08T01:07:31;99033.69;;;-5.64;67.53
58239;BME280;44037;55.638;37.356;2024-03-08T01:10:00;99041.56;;;-5.49;67.38
58239;BME280;44037;55.638;37.356;2024-03-08T01:12:28;99033.06;;;-5.53;66.88
58239;BME280;44037;55.638;37.356;2024-03-08T01:14:55;99030.25;;;-5.50;67.14
58239;BME280;44037;55.638;37.356;2024-03-08T01:17:24;99029.78;;;-5.56;66.93
58239;BME280;44037;55.638;37.356;2024-03-08T01:19:52;99026.59;;;-5.47;66.92
58239;BME280;44037;55.638;37.356;2024-03-08T01:22:20;99029.97;;;-5.59;66.63
58239;BME280;44037;55.638;37.356;2024-03-08T01:24:48;99030.72;;;-5.72;66.76
58239;BME280;44037;55.638;37.356;2024-03-08T01:27:17;99025.09;;;-5.80;67.13
58239;BME280;44037;55.638;37.356;2024-03-08T01:29:44;99011.44;;;-5.85;67.69
58239;BME280;44037;55.638;37.356;2024-03-08T01:32:12;99018.56;;;-5.87;67.61
58239;BME280;44037;55.638;37.356;2024-03-08T01:34:39;99009.94;;;-5.89;67.60
58239;BME280;44037;55.638;37.356;2024-03-08T01:37:06;99007.69;;;-5.96;67.69
58239;BME280;44037;55.638;37.356;2024-03-08T01:39:34;99013.38;;;-6.03;67.63
58239;BME280;44037;55.638;37.356;2024-03-08T01:42:01;99008.81;;;-6.00;67.81
58239;BME280;44037;55.638;37.356;2024-03-08T01:44:30;99004.81;;;-6.05;67.69
58239;BME280;44037;55.638;37.356;2024-03-08T01:46:57;99013.38;;;-6.18;68.38
58239;BME280;44037;55.638;37.356;2024-03-08T01:49:26;99008.09;;;-6.02;68.55
58239;BME280;44037;55.638;37.356;2024-03-08T01:51:55;99014.06;;;-6.00;68.17
58239;BME280;44037;55.638;37.356;2024-03-08T01:54:23;99004.34;;;-6.12;68.38
58239;BME280;44037;55.638;37.356;2024-03-08T01:56:51;99009.38;;;-5.94;68.34
58239;BME280;44037;55.638;37.356;2024-03-08T01:59:19;99001.53;;;-5.94;68.25
58239;BME280;44037;55.638;37.356;2024-03-08T02:01:48;99008.94;;;-5.87;67.84
58239;BME280;44037;55.638;37.356;2024-03-08T02:04:15;98998.66;;;-5.90;67.87
58239;BME280;44037;55.638;37.356;2024-03-08T02:06:43;99005.75;;;-5.92;67.47
58239;BME280;44037;55.638;37.356;2024-03-08T02:09:11;99012.75;;;-5.92;67.49
58239;BME280;44037;55.638;37.356;2024-03-08T02:11:40;99008.63;;;-6.41;68.38
58239;BME280;44037;55.638;37.356;2024-03-08T02:14:09;99014.00;;;-6.28;68.64
58239;BME280;44037;55.638;37.356;2024-03-08T02:16:37;99002.66;;;-6.43;68.94
58239;BME280;44037;55.638;37.356;2024-03-08T02:19:06;99008.31;;;-6.51;69.25
58239;BME280;44037;55.638;37.356;2024-03-08T02:21:36;99008.31;;;-6.51;69.50
58239;BME280;44037;55.638;37.356;2024-03-08T02:24:04;99005.84;;;-6.69;69.84
58239;BME280;44037;55.638;37.356;2024-03-08T02:26:33;98996.56;;;-6.58;70.03
58239;BME280;44037;55.638;37.356;2024-03-08T02:29:00;99002.66;;;-6.74;70.30
58239;BME280;44037;55.638;37.356;2024-03-08T02:31:28;98998.97;;;-7.02;70.79
58239;BME280;44037;55.638;37.356;2024-03-08T02:33:55;98995.34;;;-6.99;71.44
58239;BME280;44037;55.638;37.356;2024-03-08T02:36:22;98993.75;;;-7.02;71.60
58239;BME280;44037;55.638;37.356;2024-03-08T02:38:51;98989.00;;;-6.95;71.67
58239;BME280;44037;55.638;37.356;2024-03-08T02:41:18;98991.13;;;-7.02;71.67
58239;BME280;44037;55.638;37.356;2024-03-08T02:43:45;98993.06;;;-7.05;71.90
58239;BME280;44037;55.638;37.356;2024-03-08T02:46:13;98984.47;;;-7.23;71.86
58239;BME280;44037;55.638;37.356;2024-03-08T02:48:41;98991.91;;;-7.32;72.89
58239;BME280;44037;55.638;37.356;2024-03-08T02:51:08;98995.28;;;-7.30;72.57
58239;BME280;44037;55.638;37.356;2024-03-08T02:53:36;98986.03;;;-7.19;72.61
58239;BME280;44037;55.638;37.356;2024-03-08T02:56:05;98986.03;;;-7.51;73.00
58239;BME280;44037;55.638;37.356;2024-03-08T02:58:34;99002.28;;;-7.80;74.30
58239;BME280;44037;55.638;37.356;2024-03-08T03:01:02;98994.50;;;-7.97;74.93
58239;BME280;44037;55.638;37.356;2024-03-08T03:03:30;98989.25;;;-8.13;75.75
58239;BME280;44037;55.638;37.356;2024-03-08T03:05:58;98992.13;;;-8.02;76.22
58239;BME280;44037;55.638;37.356;2024-03-08T03:08:26;98976.38;;;-8.34;76.74
58239;BME280;44037;55.638;37.356;2024-03-08T03:10:54;98981.72;;;-8.19;77.05
58239;BME280;44037;55.638;37.356;2024-03-08T03:13:24;98976.22;;;-8.31;77.16
58239;BME280;44037;55.638;37.356;2024-03-08T03:15:51;98975.47;;;-8.33;77.64
58239;BME280;44037;55.638;37.356;2024-03-08T03:18:18;98969.31;;;-8.32;77.90
58239;BME280;44037;55.638;37.356;2024-03-08T03:20:47;98961.41;;;-8.13;77.80
58239;BME280;44037;55.638;37.356;2024-03-08T03:23:15;98967.69;;;-8.17;77.63
58239;BME280;44037;55.638;37.356;2024-03-08T03:25:46;98958.09;;;-8.16;77.76
58239;BME280;44037;55.638;37.356;2024-03-08T03:28:13;98954.44;;;-8.12;77.98
58239;BME280;44037;55.638;37.356;2024-03-08T03:30:45;98955.91;;;-8.24;78.12
58239;BME280;44037;55.638;37.356;2024-03-08T03:33:13;98953.25;;;-8.22;78.61
58239;BME280;44037;55.638;37.356;2024-03-08T03:35:42;98955.44;;;-8.15;78.47
58239;BME280;44037;55.638;37.356;2024-03-08T03:38:09;98943.81;;;-8.25;78.90
58239;BME280;44037;55.638;37.356;2024-03-08T03:40:37;98938.66;;;-8.09;78.62
58239;BME280;44037;55.638;37.356;2024-03-08T03:43:05;98935.81;;;-8.04;78.45
58239;BME280;44037;55.638;37.356;2024-03-08T03:45:33;98935.34;;;-8.13;78.82
58239;BME280;44037;55.638;37.356;2024-03-08T03:48:04;98920.63;;;-8.14;78.80
58239;BME280;44037;55.638;37.356;2024-03-08T03:50:32;98920.88;;;-7.85;78.87
58239;BME280;44037;55.638;37.356;2024-03-08T03:53:01;98921.72;;;-7.84;78.52
58239;BME280;44037;55.638;37.356;2024-03-08T03:55:28;98925.41;;;-7.88;78.27
58239;BME280;44037;55.638;37.356;2024-03-08T03:57:56;98920.50;;;-7.95;78.43
58239;BME280;44037;55.638;37.356;2024-03-08T04:00:24;98920.19;;;-7.88;78.46
58239;BME280;44037;55.638;37.356;2024-03-08T04:02:53;98924.53;;;-8.05;78.55
58239;BME280;44037;55.638;37.356;2024-03-08T04:05:21;98913.59;;;-7.96;78.53
58239;BME280;44037;55.638;37.356;2024-03-08T04:07:49;98932.59;;;-8.09;78.49
58239;BME280;44037;55.638;37.356;2024-03-08T04:10:16;98931.44;;;-8.04;78.59
58239;BME280;44037;55.638;37.356;2024-03-08T04:12:45;98935.13;;;-8.08;78.76
58239;BME280;44037;55.638;37.356;2024-03-08T04:15:13;98928.72;;;-8.18;79.18
58239;BME280;44037;55.638;37.356;2024-03-08T04:17:41;98941.13;;;-8.23;79.30
58239;BME280;44037;55.638;37.356;2024-03-08T04:20:08;98933.41;;;-8.25;79.41
58239;BME280;44037;55.638;37.356;2024-03-08T04:22:38;98927.19;;;-8.22;79.63
58239;BME280;44037;55.638;37.356;2024-03-08T04:25:06;98925.50;;;-8.23;79.69
58239;BME280;44037;55.638;37.356;2024-03-08T04:27:35;98919.31;;;-8.05;79.70
58239;BME280;44037;55.638;37.356;2024-03-08T04:30:03;98913.91;;;-8.18;79.54
58239;BME280;44037;55.638;37.356;2024-03-08T04:32:33;98913.28;;;-8.05;79.85
58239;BME280;44037;55.638;37.356;2024-03-08T04:35:01;98923.84;;;-8.08;79.29
58239;BME280;44037;55.638;37.356;2024-03-08T04:37:31;98916.16;;;-7.94;79.24
58239;BME280;44037;55.638;37.356;2024-03-08T04:39:59;98903.78;;;-7.90;79.45
58239;BME280;44037;55.638;37.356;2024-03-08T04:42:28;98906.75;;;-7.81;78.81
58239;BME280;44037;55.638;37.356;2024-03-08T04:44:58;98906.69;;;-7.63;78.94
58239;BME280;44037;55.638;37.356;2024-03-08T04:47:26;98913.00;;;-7.51;78.46
58239;BME280;44037;55.638;37.356;2024-03-08T04:49:53;98902.53;;;-7.67;78.59
58239;BME280;44037;55.638;37.356;2024-03-08T04:52:21;98911.03;;;-7.64;78.06
58239;BME280;44037;55.638;37.356;2024-03-08T04:54:48;98907.34;;;-7.91;78.55
58239;BME280;44037;55.638;37.356;2024-03-08T04:57:17;98907.53;;;-8.12;79.41
58239;BME280;44037;55.638;37.356;2024-03-08T04:59:44;98896.78;;;-8.06;79.56
58239;BME280;44037;55.638;37.356;2024-03-08T05:02:11;98908.09;;;-8.23;80.00
58239;BME280;44037;55.638;37.356;2024-03-08T05:04:39;98912.69;;;-8.28;80.67
58239;BME280;44037;55.638;37.356;2024-03-08T05:07:08;98890.16;;;-7.96;80.70
58239;BME280;44037;55.638;37.356;2024-03-08T05:09:35;98894.63;;;-7.98;80.44
58239;BME280;44037;55.638;37.356;2024-03-08T05:12:03;98906.16;;;-7.86;80.42
58239;BME280;44037;55.638;37.356;2024-03-08T05:14:32;98895.31;;;-7.94;80.55
58239;BME280;44037;55.638;37.356;2024-03-08T05:17:00;98893.94;;;-7.85;80.80
58239;BME280;44037;55.638;37.356;2024-03-08T05:19:28;98895.53;;;-7.99;81.05
58239;BME280;44037;55.638;37.356;2024-03-08T05:21:56;98887.22;;;-7.89;81.28
58239;BME280;44037;55.638;37.356;2024-03-08T05:24:23;98888.22;;;-7.92;81.44
58239;BME280;44037;55.638;37.356;2024-03-08T05:26:50;98882.34;;;-7.64;81.41
58239;BME280;44037;55.638;37.356;2024-03-08T05:29:18;98882.88;;;-7.89;81.67
58239;BME280;44037;55.638;37.356;2024-03-08T05:31:47;98875.91;;;-7.56;81.68
58239;BME280;44037;55.638;37.356;2024-03-08T05:34:15;98877.59;;;-7.25;81.30
58239;BME280;44037;55.638;37.356;2024-03-08T05:36:45;98879.34;;;-7.56;80.73
58239;BME280;44037;55.638;37.356;2024-03-08T05:39:13;98872.19;;;-7.52;81.13
58239;BME280;44037;55.638;37.356;2024-03-08T05:41:42;98869.56;;;-7.52;81.06
58239;BME280;44037;55.638;37.356;2024-03-08T05:44:10;98871.78;;;-7.60;81.03
58239;BME280;44037;55.638;37.356;2024-03-08T05:46:37;98873.72;;;-7.34;81.13
58239;BME280;44037;55.638;37.356;2024-03-08T05:49:06;98874.72;;;-7.20;80.66
58239;BME280;44037;55.638;37.356;2024-03-08T05:51:37;98880.09;;;-7.23;80.56
58239;BME280;44037;55.638;37.356;2024-03-08T05:54:06;98881.78;;;-7.22;80.73
58239;BME280;44037;55.638;37.356;2024-03-08T05:56:36;98889.75;;;-7.40;80.88
58239;BME280;44037;55.638;37.356;2024-03-08T05:59:03;98885.16;;;-7.20;80.91
58239;BME280;44037;55.638;37.356;2024-03-08T06:01:31;98879.94;;;-7.20;80.27
58239;BME280;44037;55.638;37.356;2024-03-08T06:03:58;98883.22;;;-6.86;80.60
58239;BME280;44037;55.638;37.356;2024-03-08T06:06:27;98887.16;;;-6.79;80.07
58239;BME280;44037;55.638;37.356;2024-03-08T06:08:55;98886.19;;;-7.23;79.98
58239;BME280;44037;55.638;37.356;2024-03-08T06:11:24;98881.78;;;-7.22;80.43
58239;BME280;44037;55.638;37.356;2024-03-08T06:13:54;98884.53;;;-7.40;80.59
58239;BME280;44037;55.638;37.356;2024-03-08T06:16:26;98877.97;;;-7.47;81.42
58239;BME280;44037;55.638;37.356;2024-03-08T06:18:55;98870.34;;;-7.50;81.32
58239;BME280;44037;55.638;37.356;2024-03-08T06:21:23;98877.00;;;-7.30;81.48
58239;BME280;44037;55.638;37.356;2024-03-08T06:23:54;98874.69;;;-7.04;81.19
58239;BME280;44037;55.638;37.356;2024-03-08T06:26:24;98871.75;;;-6.84;80.42
58239;BME280;44037;55.638;37.356;2024-03-08T06:28:53;98869.50;;;-6.45;80.15
58239;BME280;44037;55.638;37.356;2024-03-08T06:31:21;98869.91;;;-6.82;79.39
58239;BME280;44037;55.638;37.356;2024-03-08T06:33:48;98869.66;;;-6.63;79.67
58239;BME280;44037;55.638;37.356;2024-03-08T06:36:16;98866.41;;;-6.52;79.40
58239;BME280;44037;55.638;37.356;2024-03-08T06:38:45;98866.22;;;-6.63;78.96
58239;BME280;44037;55.638;37.356;2024-03-08T06:41:14;98869.59;;;-6.91;79.32
58239;BME280;44037;55.638;37.356;2024-03-08T06:43:42;98867.59;;;-6.72;79.50
58239;BME280;44037;55.638;37.356;2024-03-08T06:46:09;98869.75;;;-6.50;79.46
58239;BME280;44037;55.638;37.356;2024-03-08T06:48:38;98865.13;;;-6.01;79.06
58239;BME280;44037;55.638;37.356;2024-03-08T06:51:06;98865.59;;;-6.23;78.07
58239;BME280;44037;55.638;37.356;2024-03-08T06:53:33;98869.50;;;-6.59;78.15
58239;BME280;44037;55.638;37.356;2024-03-08T06:56:01;98868.81;;;-6.63;78.66
58239;BME280;44037;55.638;37.356;2024-03-08T06:58:30;98863.25;;;-6.42;78.55
58239;BME280;44037;55.638;37.356;2024-03-08T07:00:58;98852.44;;;-6.22;78.27
58239;BME280;44037;55.638;37.356;2024-03-08T07:03:27;98876.31;;;-6.28;77.32
58239;BME280;44037;55.638;37.356;2024-03-08T07:05:55;98866.16;;;-6.04;77.70
58239;BME280;44037;55.638;37.356;2024-03-08T07:08:24;98867.75;;;-5.45;77.23
58239;BME280;44037;55.638;37.356;2024-03-08T07:10:53;98860.53;;;-5.83;75.91
58239;BME280;44037;55.638;37.356;2024-03-08T07:13:24;98864.97;;;-5.56;76.26
58239;BME280;44037;55.638;37.356;2024-03-08T07:15:52;98863.13;;;-5.41;75.99
58239;BME280;44037;55.638;37.356;2024-03-08T07:18:21;98868.91;;;-5.36;75.62
58239;BME280;44037;55.638;37.356;2024-03-08T07:20:48;98853.63;;;-5.42;75.11
58239;BME280;44037;55.638;37.356;2024-03-08T07:23:16;98859.22;;;-5.76;75.33
58239;BME280;44037;55.638;37.356;2024-03-08T07:26:04;98872.84;;;-5.71;75.47
58239;BME280;44037;55.638;37.356;2024-03-08T07:28:31;98859.38;;;-5.79;75.82
58239;BME280;44037;55.638;37.356;2024-03-08T07:31:00;98861.13;;;-5.65;75.44
58239;BME280;44037;55.638;37.356;2024-03-08T07:33:43;98865.03;;;-5.03;74.86
58239;BME280;44037;55.638;37.356;2024-03-08T07:36:10;98867.84;;;-5.19;73.93
58239;BME280;44037;55.638;37.356;2024-03-08T07:38:37;98866.47;;;-5.12;74.37
58239;BME280;44037;55.638;37.356;2024-03-08T07:41:04;98865.25;;;-4.53;74.43
58239;BME280;44037;55.638;37.356;2024-03-08T07:43:32;98862.28;;;-4.36;73.16
58239;BME280;44037;55.638;37.356;2024-03-08T07:46:01;98872.16;;;-4.39;71.74
58239;BME280;44037;55.638;37.356;2024-03-08T07:48:28;98869.97;;;-5.11;72.12
58239;BME280;44037;55.638;37.356;2024-03-08T07:50:56;98867.22;;;-5.10;73.05
58239;BME280;44037;55.638;37.356;2024-03-08T07:53:23;98865.94;;;-4.77;72.73
58239;BME280;44037;55.638;37.356;2024-03-08T07:55:51;98867.13;;;-5.08;72.94
58239;BME280;44037;55.638;37.356;2024-03-08T07:58:18;98861.56;;;-5.17;73.30
58239;BME280;44037;55.638;37.356;2024-03-08T08:00:45;98860.97;;;-5.07;73.18
58239;BME280;44037;55.638;37.356;2024-03-08T08:03:14;98846.44;;;-4.47;73.07
58239;BME280;44037;55.638;37.356;2024-03-08T08:05:41;98852.16;;;-3.90;72.69
58239;BME280;44037;55.638;37.356;2024-03-08T08:08:09;98844.47;;;-4.56;71.63
58239;BME280;44037;55.638;37.356;2024-03-08T08:10:36;98846.53;;;-4.10;71.92
58239;BME280;44037;55.638;37.356;2024-03-08T08:13:04;98845.84;;;-4.63;71.74
58239;BME280;44037;55.638;37.356;2024-03-08T08:15:31;98851.38;;;-4.55;71.82
58239;BME280;44037;55.638;37.356;2024-03-08T08:18:00;98843.84;;;-4.47;71.21
58239;BME280;44037;55.638;37.356;2024-03-08T08:20:29;98839.03;;;-4.27;71.35
58239;BME280;44037;55.638;37.356;2024-03-08T08:22:57;98841.53;;;-4.65;71.66
58239;BME280;44037;55.638;37.356;2024-03-08T08:25:25;98835.66;;;-4.17;71.44
58239;BME280;44037;55.638;37.356;2024-03-08T08:27:52;98840.59;;;-4.38;71.99
58239;BME280;44037;55.638;37.356;2024-03-08T08:30:20;98840.78;;;-4.41;71.39
58239;BME280;44037;55.638;37.356;2024-03-08T08:32:47;98859.78;;;-4.37;71.84
58239;BME280;44037;55.638;37.356;2024-03-08T08:35:15;98838.69;;;-4.10;71.41
58239;BME280;44037;55.638;37.356;2024-03-08T08:37:43;98846.16;;;-4.29;70.69
58239;BME280;44037;55.638;37.356;2024-03-08T08:40:11;98846.78;;;-4.65;71.80
58239;BME280;44037;55.638;37.356;2024-03-08T08:42:41;98852.53;;;-4.08;71.31
58239;BME280;44037;55.638;37.356;2024-03-08T08:45:09;98844.81;;;-4.48;72.00
58239;BME280;44037;55.638;37.356;2024-03-08T08:47:37;98837.94;;;-3.99;71.05
58239;BME280;44037;55.638;37.356;2024-03-08T08:50:05;98840.59;;;-4.12;70.87
58239;BME280;44037;55.638;37.356;2024-03-08T08:52:32;98829.34;;;-4.01;70.91
58239;BME280;44037;55.638;37.356;2024-03-08T08:55:02;98836.59;;;-4.43;71.61
58239;BME280;44037;55.638;37.356;2024-03-08T08:57:32;98831.75;;;-4.24;71.79
58239;BME280;44037;55.638;37.356;2024-03-08T09:00:01;98826.72;;;-4.01;71.04
58239;BME280;44037;55.638;37.356;2024-03-08T09:02:29;98840.44;;;-3.85;71.00
58239;BME280;44037;55.638;37.356;2024-03-08T09:04:57;98838.50;;;-3.45;70.07
58239;BME280;44037;55.638;37.356;2024-03-08T09:07:24;98847.69;;;-3.51;69.64
58239;BME280;44037;55.638;37.356;2024-03-08T09:09:51;98834.13;;;-3.45;69.30
58239;BME280;44037;55.638;37.356;2024-03-08T09:12:24;98842.53;;;-3.28;69.50
58239;BME280;44037;55.638;37.356;2024-03-08T09:14:51;98838.94;;;-3.52;69.31
58239;BME280;44037;55.638;37.356;2024-03-08T09:17:18;98835.28;;;-3.86;70.15
58239;BME280;44037;55.638;37.356;2024-03-08T09:19:46;98835.22;;;-3.36;69.66
58239;BME280;44037;55.638;37.356;2024-03-08T09:22:14;98831.44;;;-2.96;68.75
58239;BME280;44037;55.638;37.356;2024-03-08T09:24:41;98845.31;;;-3.43;68.30
58239;BME280;44037;55.638;37.356;2024-03-08T09:27:09;98840.50;;;-3.49;69.50
58239;BME280;44037;55.638;37.356;2024-03-08T09:29:37;98839.13;;;-3.18;69.11
58239;BME280;44037;55.638;37.356;2024-03-08T09:32:05;98840.69;;;-3.39;68.92
58239;BME280;44037;55.638;37.356;2024-03-08T09:34:33;98830.53;;;-3.68;69.67
58239;BME280;44037;55.638;37.356;2024-03-08T09:37:01;98833.47;;;-3.73;70.46
58239;BME280;44037;55.638;37.356;2024-03-08T09:39:30;98836.91;;;-4.09;71.05
58239;BME280;44037;55.638;37.356;2024-03-08T09:41:59;98827.00;;;-3.56;70.66
58239;BME280;44037;55.638;37.356;2024-03-08T09:44:26;98824.13;;;-2.69;69.85
58239;BME280;44037;55.638;37.356;2024-03-08T09:46:56;98822.38;;;-2.11;68.50
58239;BME280;44037;55.638;37.356;2024-03-08T09:49:25;98836.38;;;-3.16;67.95
58239;BME280;44037;55.638;37.356;2024-03-08T09:51:52;98824.38;;;-3.07;68.75
58239;BME280;44037;55.638;37.356;2024-03-08T09:54:19;98823.88;;;-2.66;67.96
58239;BME280;44037;55.638;37.356;2024-03-08T09:56:48;98822.25;;;-2.10;66.99
58239;BME280;44037;55.638;37.356;2024-03-08T09:59:18;98819.81;;;-1.90;66.18
58239;BME280;44037;55.638;37.356;2024-03-08T10:02:03;98814.81;;;-1.71;65.27
58239;BME280;44037;55.638;37.356;2024-03-08T10:04:31;98824.00;;;-1.65;64.22
58239;BME280;44037;55.638;37.356;2024-03-08T10:07:00;98821.50;;;-1.89;63.88
58239;BME280;44037;55.638;37.356;2024-03-08T10:09:27;98828.56;;;-1.78;64.52
58239;BME280;44037;55.638;37.356;2024-03-08T10:11:56;98822.34;;;-2.34;65.16
58239;BME280;44037;55.638;37.356;2024-03-08T10:14:24;98820.69;;;-2.12;64.70
58239;BME280;44037;55.638;37.356;2024-03-08T10:16:53;98826.88;;;-3.06;67.03
58239;BME280;44037;55.638;37.356;2024-03-08T10:19:27;98825.41;;;-2.74;67.20
58239;BME280;44037;55.638;37.356;2024-03-08T10:21:57;98819.59;;;-2.44;67.01
58239;BME280;44037;55.638;37.356;2024-03-08T10:24:25;98817.28;;;-2.83;67.15
58239;BME280;44037;55.638;37.356;2024-03-08T10:26:53;98807.06;;;-2.40;66.77
58239;BME280;44037;55.638;37.356;2024-03-08T10:29:21;98807.78;;;-2.04;66.21
58239;BME280;44037;55.638;37.356;2024-03-08T10:31:48;98807.41;;;-2.00;65.85
58239;BME280;44037;55.638;37.356;2024-03-08T10:34:16;98813.13;;;-1.94;65.49
58239;BME280;44037;55.638;37.356;2024-03-08T10:36:45;98819.34;;;-2.52;66.49
58239;BME280;44037;55.638;37.356;2024-03-08T10:39:21;98807.53;;;-2.01;66.39
58239;BME280;44037;55.638;37.356;2024-03-08T10:41:53;98806.19;;;-1.84;65.26
58239;BME280;44037;55.638;37.356;2024-03-08T10:44:45;98806.22;;;-2.18;65.99
58239;BME280;44037;55.638;37.356;2024-03-08T10:47:18;98805.25;;;-1.94;66.37
58239;BME280;44037;55.638;37.356;2024-03-08T10:49:51;98795.06;;;-1.44;65.06
58239;BME280;44037;55.638;37.356;2024-03-08T10:52:23;98799.38;;;-1.43;64.38
58239;BME280;44037;55.638;37.356;2024-03-08T10:54:52;98800.09;;;-1.73;64.27
58239;BME280;44037;55.638;37.356;2024-03-08T10:57:22;98798.59;;;-1.01;64.17
58239;BME280;44037;55.638;37.356;2024-03-08T10:59:51;98796.34;;;-0.42;63.19
58239;BME280;44037;55.638;37.356;2024-03-08T11:02:19;98799.78;;;-0.52;62.77
58239;BME280;44037;55.638;37.356;2024-03-08T11:04:47;98806.22;;;-0.65;62.00
58239;BME280;44037;55.638;37.356;2024-03-08T11:07:15;98792.91;;;-1.39;63.25
58239;BME280;44037;55.638;37.356;2024-03-08T11:09:48;98793.13;;;-1.30;63.60
58239;BME280;44037;55.638;37.356;2024-03-08T11:12:23;98800.91;;;-1.29;63.20
58239;BME280;44037;55.638;37.356;2024-03-08T11:14:53;98794.66;;;-1.60;63.87
58239;BME280;44037;55.638;37.356;2024-03-08T11:17:22;98803.94;;;-2.00;65.86
58239;BME280;44037;55.638;37.356;2024-03-08T11:19:55;98801.19;;;-1.98;65.95
58239;BME280;44037;55.638;37.356;2024-03-08T11:22:27;98797.34;;;-1.94;66.85
58239;BME280;44037;55.638;37.356;2024-03-08T11:25:01;98804.69;;;-2.09;66.42
58239;BME280;44037;55.638;37.356;2024-03-08T11:27:30;98802.75;;;-2.07;67.40
58239;BME280;44037;55.638;37.356;2024-03-08T11:30:02;98805.28;;;-1.51;66.89
58239;BME280;44037;55.638;37.356;2024-03-08T11:32:37;98793.66;;;-1.48;66.26
58239;BME280;44037;55.638;37.356;2024-03-08T11:35:18;98801.06;;;-1.42;65.68
58239;BME280;44037;55.638;37.356;2024-03-08T11:37:46;98797.22;;;-1.81;65.98
58239;BME280;44037;55.638;37.356;2024-03-08T11:40:15;98800.66;;;-1.70;66.60
58239;BME280;44037;55.638;37.356;2024-03-08T11:42:44;98798.94;;;-2.14;67.42
58239;BME280;44037;55.638;37.356;2024-03-08T11:45:14;98806.09;;;-1.94;67.25
58239;BME280;44037;55.638;37.356;2024-03-08T11:47:43;98807.78;;;-2.27;67.94
58239;BME280;44037;55.638;37.356;2024-03-08T11:50:12;98802.25;;;-1.78;68.20
58239;BME280;44037;55.638;37.356;2024-03-08T11:52:39;98796.22;;;-1.58;67.10
58239;BME280;44037;55.638;37.356;2024-03-08T11:55:08;98793.16;;;-1.42;66.54
58239;BME280;44037;55.638;37.356;2024-03-08T11:57:39;98799.09;;;-1.28;66.02
58239;BME280;44037;55.638;37.356;2024-03-08T12:00:15;98789.69;;;-0.89;66.04
58239;BME280;44037;55.638;37.356;2024-03-08T12:03:01;98795.28;;;-0.82;65.18
58239;BME280;44037;55.638;37.356;2024-03-08T12:05:28;98795.16;;;-1.02;64.74
58239;BME280;44037;55.638;37.356;2024-03-08T12:07:57;98799.47;;;-0.79;64.38
58239;BME280;44037;55.638;37.356;2024-03-08T12:10:25;98795.91;;;-1.11;64.86
58239;BME280;44037;55.638;37.356;2024-03-08T12:12:58;98788.47;;;-1.06;64.34
58239;BME280;44037;55.638;37.356;2024-03-08T12:15:26;98788.34;;;-1.04;65.09
58239;BME280;44037;55.638;37.356;2024-03-08T12:17:55;98790.59;;;-0.78;64.56
58239;BME280;44037;55.638;37.356;2024-03-08T12:20:24;98797.28;;;-0.95;64.65
58239;BME280;44037;55.638;37.356;2024-03-08T12:22:53;98790.72;;;-1.34;64.96
58239;BME280;44037;55.638;37.356;2024-03-08T12:25:25;98798.16;;;-1.39;65.54
58239;BME280;44037;55.638;37.356;2024-03-08T12:27:54;98793.97;;;-1.09;65.43
58239;BME280;44037;55.638;37.356;2024-03-08T12:30:23;98800.41;;;-1.02;64.96
58239;BME280;44037;55.638;37.356;2024-03-08T12:32:54;98798.38;;;-0.98;65.06
58239;BME280;44037;55.638;37.356;2024-03-08T12:35:24;98795.66;;;-1.08;65.05
58239;BME280;44037;55.638;37.356;2024-03-08T12:37:53;98815.31;;;-1.12;64.91
58239;BME280;44037;55.638;37.356;2024-03-08T12:40:25;98802.47;;;-1.38;65.72
58239;BME280;44037;55.638;37.356;2024-03-08T12:42:55;98799.47;;;-1.01;65.86
58239;BME280;44037;55.638;37.356;2024-03-08T12:45:23;98800.34;;;-1.11;65.46
58239;BME280;44037;55.638;37.356;2024-03-08T12:47:51;98797.34;;;-1.07;65.66
58239;BME280;44037;55.638;37.356;2024-03-08T12:50:19;98804.56;;;-0.88;65.54
58239;BME280;44037;55.638;37.356;2024-03-08T12:52:46;98805.25;;;-1.07;64.99
58239;BME280;44037;55.638;37.356;2024-03-08T12:55:14;98803.72;;;-1.21;65.68
58239;BME280;44037;55.638;37.356;2024-03-08T12:57:43;98807.38;;;-1.01;65.12